Terminal Aerodrome Forecast
Issued by NWS

Home | Current Version | Previous Version | Text Only | Print | Product List | Glossary Off
Versions: 1 2 3 4 5 6 7 8 9 10 11 12 13 14 15 16 17 18 19 20

696
FTUS43 KLOT 211454 AAA
TAFDPA
TAF AMD
KDPA 211454Z 2115/2212 09005KT P6SM FEW040 OVC060
     FM212000 07007KT P6SM OVC080
     FM220200 07004KT P6SM OVC100=

USA.gov is the U.S. government's official web portal to all federal, state and local government web resources and services.